createdAt,value
2018-04-26T00:01:11.112Z,5.20
2018-04-26T00:03:39.921Z,4.60
2018-04-26T00:06:08.719Z,4.80
2018-04-26T00:08:38.006Z,5.73
2018-04-26T00:11:06.882Z,5.10
2018-04-26T00:13:35.680Z,4.97
2018-04-26T00:16:04.493Z,4.90
2018-04-26T00:18:33.292Z,4.83
2018-04-26T00:21:02.486Z,5.60
2018-04-26T00:23:31.350Z,5.70
2018-04-26T00:26:00.195Z,5.60
2018-04-26T00:28:29.017Z,5.30
2018-04-26T00:30:57.813Z,5.37
2018-04-26T00:33:26.604Z,4.73
2018-04-26T00:35:55.433Z,4.90
2018-04-26T00:38:24.227Z,5.83
2018-04-26T00:40:53.050Z,6.10
2018-04-26T00:43:21.955Z,5.50
2018-04-26T00:45:50.758Z,6.03
2018-04-26T00:48:19.550Z,6.50
2018-04-26T00:50:48.406Z,6.23
2018-04-26T00:53:17.378Z,6.53
2018-04-26T00:55:46.175Z,5.83
2018-04-26T00:58:15.619Z,6.30
2018-04-26T01:00:44.406Z,6.10
2018-04-26T01:03:13.197Z,6.87
2018-04-26T01:05:42.216Z,5.60
2018-04-26T01:08:11.701Z,6.30
2018-04-26T01:10:40.493Z,6.10
2018-04-26T01:13:09.334Z,5.70
2018-04-26T01:15:38.133Z,5.70
2018-04-26T01:18:06.953Z,5.70
2018-04-26T01:20:35.847Z,5.40
2018-04-26T01:23:04.640Z,5.30
2018-04-26T01:25:33.434Z,5.60
2018-04-26T01:28:02.926Z,5.40
2018-04-26T01:30:31.819Z,5.00
2018-04-26T01:33:00.606Z,6.10
2018-04-26T01:35:29.702Z,6.00
2018-04-26T01:37:58.497Z,5.13
2018-04-26T01:40:27.386Z,5.80
2018-04-26T01:42:56.194Z,5.50
2018-04-26T01:45:24.986Z,5.40
2018-04-26T01:47:53.825Z,5.33
2018-04-26T01:50:23.459Z,4.73
2018-04-26T01:52:52.254Z,5.13
2018-04-26T01:55:21.081Z,5.30
2018-04-26T01:57:49.924Z,4.90
2018-04-26T02:00:18.715Z,4.87
2018-04-26T02:02:48.126Z,5.37
2018-04-26T02:05:16.918Z,4.50
2018-04-26T02:07:45.706Z,4.80
2018-04-26T02:10:14.549Z,5.10
2018-04-26T02:12:43.337Z,5.57
2018-04-26T02:15:12.133Z,5.17
2018-04-26T02:17:41.052Z,6.57
2018-04-26T02:20:09.834Z,6.50
2018-04-26T02:22:38.833Z,6.37
2018-04-26T02:25:07.633Z,6.23
2018-04-26T02:27:36.423Z,6.90
2018-04-26T02:30:05.251Z,5.97
2018-04-26T02:32:34.038Z,6.53
2018-04-26T02:35:02.838Z,7.00
2018-04-26T02:37:32.301Z,7.00
2018-04-26T02:40:01.100Z,6.93
2018-04-26T02:42:29.981Z,6.23
2018-04-26T02:44:58.869Z,7.00
2018-04-26T02:47:27.661Z,6.50
2018-04-26T02:49:56.544Z,7.10
2018-04-26T02:52:25.771Z,7.60
2018-04-26T02:54:54.628Z,7.30
2018-04-26T02:57:23.424Z,6.73
2018-04-26T02:59:52.923Z,6.60
2018-04-26T03:02:21.723Z,6.53
2018-04-26T03:04:50.524Z,7.30
2018-04-26T03:07:20.179Z,6.93
2018-04-26T03:09:50.539Z,7.20
2018-04-26T03:12:19.423Z,6.70
2018-04-26T03:14:48.514Z,6.73
2018-04-26T03:17:17.418Z,7.20
2018-04-26T03:19:46.219Z,6.93
2018-04-26T03:22:15.094Z,7.23
2018-04-26T03:24:43.885Z,6.63
2018-04-26T03:27:13.397Z,7.33
2018-04-26T03:29:42.190Z,6.47
2018-04-26T03:32:10.987Z,6.70
2018-04-26T03:34:39.857Z,7.30
2018-04-26T03:37:08.656Z,7.10
2018-04-26T03:39:37.548Z,6.93
2018-04-26T03:42:06.431Z,7.73
2018-04-26T03:44:35.222Z,7.13
2018-04-26T03:47:04.316Z,7.67
2018-04-26T03:49:33.216Z,7.37
2018-04-26T03:52:02.815Z,7.43
2018-04-26T03:54:31.645Z,7.60
2018-04-26T03:57:00.494Z,7.27
2018-04-26T03:59:29.290Z,7.90
2018-04-26T04:02:04.217Z,6.53
2018-04-26T04:04:38.938Z,7.43
2018-04-26T04:07:07.825Z,7.50
2018-04-26T04:09:36.629Z,6.67
2018-04-26T04:12:05.422Z,6.97
2018-04-26T04:14:34.254Z,6.70
2018-04-26T04:17:03.066Z,6.53
2018-04-26T04:19:31.870Z,5.73
2018-04-26T04:22:00.706Z,5.80
2018-04-26T04:24:29.514Z,6.47
2018-04-26T04:26:58.321Z,6.30
2018-04-26T04:29:27.153Z,5.33
2018-04-26T04:31:55.943Z,5.50
2018-04-26T04:34:24.755Z,6.10
2018-04-26T04:36:54.031Z,5.63
2018-04-26T04:39:22.818Z,5.50
2018-04-26T04:41:51.617Z,5.13
2018-04-26T04:44:20.462Z,4.60
2018-04-26T04:46:49.257Z,4.70
2018-04-26T04:49:18.169Z,5.50
2018-04-26T04:51:47.165Z,5.53
2018-04-26T04:54:16.631Z,5.57
2018-04-26T04:56:45.425Z,5.13
2018-04-26T04:59:14.253Z,5.13
2018-04-26T05:01:43.071Z,5.27
2018-04-26T05:04:11.926Z,5.03
2018-04-26T05:06:40.722Z,4.90
2018-04-26T05:09:10.131Z,5.13
2018-04-26T05:11:38.943Z,4.83
2018-04-26T05:14:07.740Z,4.73
2018-04-26T05:16:39.746Z,5.10
2018-04-26T05:19:08.649Z,4.53
2018-04-26T05:21:37.495Z,4.90
2018-04-26T05:24:06.286Z,4.60
2018-04-26T05:26:35.114Z,4.40
2018-04-26T05:29:04.035Z,4.73
2018-04-26T05:31:32.902Z,4.40
2018-04-26T05:34:01.694Z,5.20
2018-04-26T05:36:30.583Z,5.10
2018-04-26T05:38:59.469Z,4.60
2018-04-26T05:41:28.262Z,4.17
2018-04-26T05:43:57.515Z,4.20
2018-04-26T05:46:26.350Z,4.13
2018-04-26T05:48:55.146Z,4.90
2018-04-26T05:51:23.991Z,4.27
2018-04-26T05:53:52.822Z,3.83
2018-04-26T05:56:22.515Z,3.47
2018-04-26T05:58:51.424Z,3.80
2018-04-26T06:01:20.218Z,4.07
2018-04-26T06:03:49.151Z,3.50
2018-04-26T06:06:17.886Z,3.67
2018-04-26T06:08:46.686Z,3.80
2018-04-26T06:11:15.786Z,3.83
2018-04-26T06:13:44.570Z,3.87
2018-04-26T06:16:13.466Z,3.73
2018-04-26T06:18:42.654Z,3.40
2018-04-26T06:21:11.442Z,3.83
2018-04-26T06:23:40.242Z,3.43
2018-04-26T06:26:09.112Z,4.27
2018-04-26T06:28:38.014Z,3.20
2018-04-26T06:31:06.865Z,3.10
2018-04-26T06:33:35.803Z,3.00
2018-04-26T06:36:04.590Z,3.60
2018-04-26T06:38:33.392Z,3.40
2018-04-26T06:41:02.993Z,3.20
2018-04-26T06:43:31.791Z,3.00
2018-04-26T06:46:00.578Z,3.43
2018-04-26T06:48:29.426Z,2.50
2018-04-26T06:50:58.223Z,2.63
2018-04-26T06:53:27.107Z,2.60
2018-04-26T06:55:55.858Z,3.07
2018-04-26T06:58:25.278Z,2.40
2018-04-26T07:00:54.078Z,3.10
2018-04-26T07:03:22.909Z,3.13
2018-04-26T07:05:51.733Z,2.73
2018-04-26T07:08:20.591Z,2.60
2018-04-26T07:10:49.677Z,3.13
2018-04-26T07:13:18.575Z,2.20
2018-04-26T07:15:47.361Z,2.57
2018-04-26T07:18:16.678Z,1.93
2018-04-26T07:20:45.478Z,2.87
2018-04-26T07:23:14.334Z,2.13
2018-04-26T07:25:43.138Z,3.00
2018-04-26T07:28:11.935Z,2.43
2018-04-26T07:30:40.783Z,2.20
2018-04-26T07:33:09.586Z,2.10
2018-04-26T07:35:38.484Z,2.27
2018-04-26T07:38:09.529Z,2.30
2018-04-26T07:40:38.327Z,2.37
2018-04-26T07:43:07.201Z,2.20
2018-04-26T07:45:36.914Z,2.33
2018-04-26T07:48:05.707Z,2.50
2018-04-26T07:50:34.504Z,2.37
2018-04-26T07:53:03.460Z,1.83
2018-04-26T07:55:32.171Z,2.10
2018-04-26T07:58:01.064Z,2.00
2018-04-26T08:00:30.882Z,2.10
2018-04-26T08:02:59.795Z,1.87
2018-04-26T08:05:28.587Z,1.87
2018-04-26T08:07:58.781Z,1.40
2018-04-26T08:10:27.585Z,1.97
2018-04-26T08:12:56.481Z,1.77
2018-04-26T08:15:25.354Z,1.97
2018-04-26T08:17:54.147Z,1.67
2018-04-26T08:20:22.973Z,1.90
2018-04-26T08:22:51.811Z,1.70
2018-04-26T08:25:20.705Z,1.73
2018-04-26T08:27:49.601Z,1.80
2018-04-26T08:30:18.906Z,1.73
2018-04-26T08:32:47.702Z,1.33
2018-04-26T08:35:16.502Z,1.80
2018-04-26T08:37:45.691Z,1.43
2018-04-26T08:40:14.574Z,1.60
2018-04-26T08:42:43.377Z,1.70
2018-04-26T08:45:12.197Z,1.60
2018-04-26T08:47:41.013Z,1.37
2018-04-26T08:50:09.927Z,1.80
2018-04-26T08:52:38.737Z,1.40
2018-04-26T08:55:07.609Z,1.80
2018-04-26T08:57:36.463Z,1.60
2018-04-26T09:00:05.289Z,1.87
2018-04-26T09:02:35.082Z,1.53
2018-04-26T09:05:04.517Z,1.60
2018-04-26T09:07:33.399Z,1.67
2018-04-26T09:10:02.287Z,2.03
2018-04-26T09:12:31.381Z,1.90
2018-04-26T09:15:00.364Z,1.40
2018-04-26T09:17:29.106Z,1.50
2018-04-26T09:19:57.922Z,1.30
2018-04-26T09:22:26.725Z,1.33
2018-04-26T09:24:55.597Z,1.43
2018-04-26T09:27:24.394Z,1.20
2018-04-26T09:29:53.417Z,1.10
2018-04-26T09:32:22.322Z,0.93
2018-04-26T09:34:51.104Z,1.33
2018-04-26T09:37:19.940Z,1.50
2018-04-26T09:39:48.722Z,1.60
2018-04-26T09:42:17.666Z,1.57
2018-04-26T09:44:46.469Z,1.40
2018-04-26T09:47:15.258Z,1.50
2018-04-26T09:49:44.101Z,1.27
2018-04-26T09:52:12.889Z,1.97
2018-04-26T09:54:41.694Z,1.40
2018-04-26T09:57:11.323Z,1.80
2018-04-26T09:59:40.127Z,1.83
2018-04-26T10:02:08.914Z,1.80
2018-04-26T10:04:44.758Z,1.57
2018-04-26T10:07:13.556Z,1.60
2018-04-26T10:09:43.358Z,1.80
2018-04-26T10:12:12.213Z,1.50
2018-04-26T10:14:41.002Z,1.40
2018-04-26T10:17:09.793Z,1.80
2018-04-26T10:19:38.665Z,1.67
2018-04-26T10:22:07.510Z,1.60
2018-04-26T10:24:36.391Z,1.83
2018-04-26T10:27:05.910Z,1.40
2018-04-26T10:29:34.694Z,1.67
2018-04-26T10:32:03.489Z,1.40
2018-04-26T10:34:32.337Z,1.30
2018-04-26T10:37:01.130Z,1.23
2018-04-26T10:39:29.933Z,1.37
2018-04-26T10:41:58.789Z,1.57
2018-04-26T10:44:27.786Z,1.50
2018-04-26T10:46:56.519Z,1.27
2018-04-26T10:49:25.921Z,1.07
2018-04-26T10:51:54.723Z,1.40
2018-04-26T10:54:23.605Z,1.53
2018-04-26T10:56:52.476Z,1.80
2018-04-26T10:59:21.273Z,1.10
2018-04-26T11:01:50.065Z,1.73
2018-04-26T11:04:19.469Z,1.30
2018-04-26T11:06:53.929Z,1.37
2018-04-26T11:09:24.318Z,1.50
2018-04-26T11:11:53.231Z,1.10
2018-04-26T11:14:22.028Z,1.23
2018-04-26T11:16:50.901Z,1.50
2018-04-26T11:19:19.686Z,1.57
2018-04-26T11:21:48.469Z,1.57
2018-04-26T11:24:17.621Z,1.47
2018-04-26T11:26:46.360Z,1.27
2018-04-26T11:29:15.193Z,1.10
2018-04-26T11:31:44.020Z,1.00
2018-04-26T11:34:12.811Z,1.20
2018-04-26T11:36:41.719Z,1.30
2018-04-26T11:39:10.615Z,1.40
2018-04-26T11:41:39.409Z,1.43
2018-04-26T11:44:08.192Z,1.30
2018-04-26T11:46:37.461Z,1.00
2018-04-26T11:49:06.182Z,1.40
2018-04-26T11:51:34.990Z,1.70
2018-04-26T11:54:04.069Z,1.20
2018-04-26T11:56:32.862Z,1.27
2018-04-26T11:59:01.667Z,1.40
2018-04-26T12:01:30.730Z,1.40
2018-04-26T12:03:59.525Z,1.40
2018-04-26T12:06:28.419Z,1.23
2018-04-26T12:08:58.742Z,1.90
2018-04-26T12:11:27.549Z,1.67
2018-04-26T12:13:56.429Z,1.27
2018-04-26T12:16:25.232Z,1.70
2018-04-26T12:18:54.114Z,2.10
2018-04-26T12:21:22.966Z,1.60
2018-04-26T12:23:51.754Z,1.90
2018-04-26T12:26:20.579Z,1.53
2018-04-26T12:28:50.085Z,1.63
2018-04-26T12:31:18.867Z,1.70
2018-04-26T12:33:47.656Z,1.70
2018-04-26T12:36:20.441Z,1.50
2018-04-26T12:38:49.283Z,1.30
2018-04-26T12:41:18.129Z,1.67
2018-04-26T12:43:46.941Z,1.67
2018-04-26T12:46:15.734Z,1.55
2018-04-26T12:48:44.588Z,1.90
2018-04-26T12:51:13.470Z,1.65
2018-04-26T12:53:42.270Z,1.80
2018-04-26T12:56:11.294Z,2.00
2018-04-26T12:58:40.054Z,1.65
2018-04-26T13:01:08.855Z,2.00
2018-04-26T13:03:38.033Z,1.42
2018-04-26T13:06:06.914Z,1.60
2018-04-26T13:08:35.705Z,2.15
2018-04-26T13:11:05.082Z,2.22
2018-04-26T13:13:33.878Z,1.87
2018-04-26T13:16:02.681Z,2.33
2018-04-26T13:18:35.582Z,2.40
2018-04-26T13:21:04.478Z,1.90
2018-04-26T13:23:33.970Z,1.55
2018-04-26T13:26:02.765Z,1.80
2018-04-26T13:28:31.559Z,1.60
2018-04-26T13:31:00.865Z,1.90
2018-04-26T13:33:29.707Z,1.75
2018-04-26T13:35:58.514Z,1.75
2018-04-26T13:38:27.739Z,1.73
2018-04-26T13:40:56.534Z,1.62
2018-04-26T13:43:25.336Z,1.87
2018-04-26T13:45:54.207Z,1.67
2018-04-26T13:48:23.022Z,1.67
2018-04-26T13:50:51.828Z,1.83
2018-04-26T13:53:20.669Z,1.70
2018-04-26T13:55:49.473Z,1.90
2018-04-26T13:58:18.354Z,1.50
2018-04-26T14:00:49.295Z,1.40
2018-04-26T14:03:18.191Z,1.45
2018-04-26T14:05:46.987Z,1.75
2018-04-26T14:08:15.835Z,1.40
2018-04-26T14:10:44.625Z,1.83
2018-04-26T14:13:14.163Z,1.73
2018-04-26T14:15:43.041Z,1.80
2018-04-26T14:18:11.834Z,1.90
2018-04-26T14:20:40.723Z,1.80
2018-04-26T14:23:09.697Z,1.90
2018-04-26T14:25:38.500Z,1.70
2018-04-26T14:28:07.329Z,2.10
2018-04-26T14:30:36.194Z,1.70
2018-04-26T14:33:04.994Z,1.65
2018-04-26T14:35:34.083Z,1.70
2018-04-26T14:38:02.966Z,2.20
2018-04-26T14:40:31.851Z,1.85
2018-04-26T14:43:00.951Z,2.20
2018-04-26T14:45:29.791Z,2.08
2018-04-26T14:47:58.606Z,1.73
2018-04-26T14:50:27.518Z,1.90
2018-04-26T14:52:56.306Z,1.80
2018-04-26T14:55:25.114Z,1.60
2018-04-26T14:57:53.958Z,1.90
2018-04-26T15:00:22.758Z,1.45
2018-04-26T15:02:51.561Z,1.80
2018-04-26T15:05:20.854Z,1.67
2018-04-26T15:07:49.582Z,1.40
2018-04-26T15:10:18.362Z,1.52
2018-04-26T15:12:48.162Z,1.25
2018-04-26T15:15:17.277Z,1.37
2018-04-26T15:17:46.014Z,1.48
2018-04-26T15:20:14.930Z,1.70
2018-04-26T15:22:43.723Z,1.67
2018-04-26T15:25:12.521Z,1.75
2018-04-26T15:27:41.349Z,1.42
2018-04-26T15:30:10.145Z,1.62
2018-04-26T15:32:38.977Z,1.40
2018-04-26T15:35:07.878Z,1.42
2018-04-26T15:37:36.667Z,2.20
2018-04-26T15:40:05.462Z,1.40
2018-04-26T15:42:34.409Z,1.60
2018-04-26T15:45:03.135Z,2.07
2018-04-26T15:47:32.011Z,1.67
2018-04-26T15:50:01.542Z,1.43
2018-04-26T15:52:41.930Z,1.77
2018-04-26T15:55:16.614Z,1.60
2018-04-26T15:58:05.051Z,1.33
2018-04-26T16:00:45.494Z,2.70
2018-04-26T16:03:20.121Z,1.70
2018-04-26T16:05:55.791Z,1.60
2018-04-26T16:08:37.798Z,1.40
2018-04-26T16:11:18.425Z,1.70
2018-04-26T16:13:59.102Z,1.40
2018-04-26T16:16:39.681Z,2.07
2018-04-26T16:19:20.175Z,1.63
2018-04-26T16:21:54.820Z,1.50
2018-04-26T16:24:35.410Z,1.60
2018-04-26T16:27:16.426Z,1.43
2018-04-26T16:29:51.145Z,1.90
2018-04-26T16:32:31.527Z,1.40
2018-04-26T16:35:11.968Z,1.50
2018-04-26T16:37:52.315Z,1.63
2018-04-26T16:40:21.115Z,1.27
2018-04-26T16:42:49.914Z,1.53
2018-04-26T16:45:18.751Z,1.30
2018-04-26T16:47:47.602Z,1.57
2018-04-26T16:50:16.403Z,1.50
2018-04-26T16:52:45.284Z,1.10
2018-04-26T16:55:14.169Z,1.17
2018-04-26T16:57:43.075Z,1.40
2018-04-26T17:00:12.163Z,1.20
2018-04-26T17:02:40.969Z,1.40
2018-04-26T17:05:09.770Z,1.40
2018-04-26T17:07:38.596Z,1.60
2018-04-26T17:10:07.393Z,1.43
2018-04-26T17:12:36.400Z,1.27
2018-04-26T17:15:05.191Z,1.20
2018-04-26T17:17:34.691Z,1.20
2018-04-26T17:20:03.795Z,1.07
2018-04-26T17:22:32.701Z,1.30
2018-04-26T17:25:02.339Z,1.10
2018-04-26T17:27:31.186Z,1.33
2018-04-26T17:30:00.074Z,1.37
2018-04-26T17:32:28.869Z,1.50
2018-04-26T17:34:58.473Z,1.30
2018-04-26T17:37:27.272Z,1.53
2018-04-26T17:39:56.158Z,1.10
2018-04-26T17:42:25.144Z,1.47
2018-04-26T17:44:53.834Z,1.30
2018-04-26T17:47:26.625Z,1.20
2018-04-26T17:49:55.432Z,1.50
2018-04-26T17:52:25.105Z,1.30
2018-04-26T17:54:53.912Z,1.57
2018-04-26T17:57:22.715Z,1.40
2018-04-26T17:59:51.683Z,1.20
2018-04-26T18:02:20.486Z,1.10
2018-04-26T18:04:49.264Z,1.43
2018-04-26T18:07:20.421Z,1.40
2018-04-26T18:09:49.210Z,2.00
2018-04-26T18:12:18.019Z,1.70
2018-04-26T18:14:46.887Z,1.77
2018-04-26T18:17:15.670Z,1.77
2018-04-26T18:19:44.564Z,1.80
2018-04-26T18:22:13.379Z,1.50
2018-04-26T18:24:42.240Z,1.80
2018-04-26T18:27:11.086Z,1.60
2018-04-26T18:29:40.939Z,2.00
2018-04-26T18:32:09.778Z,2.13
2018-04-26T18:34:38.570Z,2.30
2018-04-26T18:37:07.372Z,1.60
2018-04-26T18:39:36.401Z,1.80
2018-04-26T18:42:05.304Z,1.80
2018-04-26T18:44:34.190Z,1.70
2018-04-26T18:47:03.389Z,1.53
2018-04-26T18:49:32.276Z,1.73
2018-04-26T18:52:01.175Z,1.83
2018-04-26T18:54:30.015Z,1.80
2018-04-26T18:56:58.862Z,2.33
2018-04-26T18:59:27.657Z,4.50
2018-04-26T19:01:57.152Z,4.27
2018-04-26T19:04:25.961Z,3.00
2018-04-26T19:06:55.099Z,3.10
2018-04-26T19:09:23.978Z,3.03
2018-04-26T19:11:52.815Z,2.73
2018-04-26T19:14:21.616Z,2.60
2018-04-26T19:16:50.476Z,2.77
2018-04-26T19:19:19.270Z,2.60
2018-04-26T19:21:49.054Z,2.40
2018-04-26T19:24:17.989Z,2.00
2018-04-26T19:26:46.839Z,2.00
2018-04-26T19:29:15.675Z,1.57
2018-04-26T19:31:44.563Z,1.70
2018-04-26T19:34:13.368Z,1.60
2018-04-26T19:36:42.178Z,1.80
2018-04-26T19:39:11.736Z,2.10
2018-04-26T19:41:40.543Z,1.77
2018-04-26T19:44:09.359Z,1.87
2018-04-26T19:46:38.210Z,2.20
2018-04-26T19:49:07.103Z,1.87
2018-04-26T19:51:35.950Z,1.83
2018-04-26T19:54:04.840Z,1.90
2018-04-26T19:56:33.638Z,1.80
2018-04-26T19:59:03.794Z,1.93
2018-04-26T20:01:32.589Z,2.20
2018-04-26T20:04:01.382Z,2.07
2018-04-26T20:06:30.234Z,1.80
2018-04-26T20:08:59.048Z,1.70
2018-04-26T20:11:27.850Z,1.40
2018-04-26T20:13:56.668Z,1.80
2018-04-26T20:16:25.479Z,1.53
2018-04-26T20:18:54.895Z,1.70
2018-04-26T20:21:23.697Z,2.03
2018-04-26T20:23:53.583Z,1.77
2018-04-26T20:26:22.516Z,1.70
2018-04-26T20:28:51.425Z,1.73
2018-04-26T20:31:20.294Z,1.70
2018-04-26T20:33:49.114Z,1.83
2018-04-26T20:36:17.980Z,1.80
2018-04-26T20:38:46.847Z,1.90
2018-04-26T20:41:15.654Z,2.37
2018-04-26T20:43:44.447Z,1.80
2018-04-26T20:46:13.438Z,1.80
2018-04-26T20:48:42.233Z,1.90
2018-04-26T20:51:11.041Z,1.70
2018-04-26T20:53:41.128Z,1.70
2018-04-26T20:56:10.026Z,2.00
2018-04-26T20:58:38.913Z,1.67
2018-04-26T21:01:07.715Z,1.90
2018-04-26T21:03:36.558Z,1.80
2018-04-26T21:06:05.389Z,2.23
2018-04-26T21:08:36.434Z,2.27
2018-04-26T21:11:05.326Z,1.87
2018-04-26T21:13:34.169Z,2.00
2018-04-26T21:16:02.962Z,2.27
2018-04-26T21:18:31.890Z,2.20
2018-04-26T21:21:00.678Z,2.30
2018-04-26T21:23:29.470Z,1.80
2018-04-26T21:25:59.274Z,1.80
2018-04-26T21:28:28.069Z,2.27
2018-04-26T21:30:56.863Z,1.50
2018-04-26T21:33:25.752Z,2.13
2018-04-26T21:35:54.543Z,2.13
2018-04-26T21:38:23.527Z,1.93
2018-04-26T21:40:52.327Z,2.00
2018-04-26T21:43:21.127Z,2.13
2018-04-26T21:45:50.322Z,1.90
2018-04-26T21:48:19.197Z,1.93
2018-04-26T21:50:53.744Z,1.70
2018-04-26T21:53:28.377Z,1.73
2018-04-26T21:56:03.203Z,2.00
2018-04-26T21:58:37.830Z,2.50
2018-04-26T22:01:12.941Z,2.03
2018-04-26T22:03:57.535Z,2.03
2018-04-26T22:06:26.379Z,2.00
2018-04-26T22:08:55.174Z,2.30
2018-04-26T22:11:24.069Z,2.13
2018-04-26T22:13:52.922Z,2.07
2018-04-26T22:16:21.721Z,2.57
2018-04-26T22:18:50.537Z,2.40
2018-04-26T22:21:20.038Z,2.37
2018-04-26T22:23:48.831Z,2.23
2018-04-26T22:26:18.235Z,2.13
2018-04-26T22:28:47.126Z,2.17
2018-04-26T22:31:16.010Z,2.03
2018-04-26T22:33:44.878Z,2.00
2018-04-26T22:36:13.656Z,2.20
2018-04-26T22:38:42.486Z,2.30
2018-04-26T22:41:12.199Z,2.87
2018-04-26T22:43:41.090Z,2.80
2018-04-26T22:46:09.886Z,2.70
2018-04-26T22:48:39.693Z,2.90
2018-04-26T22:51:08.490Z,2.50
2018-04-26T22:53:37.286Z,2.40
2018-04-26T22:56:06.098Z,2.40
2018-04-26T22:58:34.902Z,2.37
2018-04-26T23:01:03.841Z,2.40
2018-04-26T23:03:32.642Z,2.57
2018-04-26T23:06:01.434Z,2.23
2018-04-26T23:08:31.836Z,2.17
2018-04-26T23:11:00.730Z,2.10
2018-04-26T23:13:29.520Z,2.20
2018-04-26T23:15:58.523Z,2.63
2018-04-26T23:18:27.419Z,2.33
2018-04-26T23:20:56.213Z,2.37
2018-04-26T23:23:25.121Z,2.10
2018-04-26T23:25:53.910Z,2.20
2018-04-26T23:28:22.767Z,2.47
2018-04-26T23:30:51.556Z,3.13
2018-04-26T23:33:20.353Z,2.20
2018-04-26T23:35:49.271Z,3.07
2018-04-26T23:38:18.034Z,2.87
2018-04-26T23:40:46.831Z,2.90
2018-04-26T23:43:16.114Z,2.43
2018-04-26T23:45:44.998Z,2.83
2018-04-26T23:48:13.789Z,2.43
2018-04-26T23:50:42.598Z,2.40
2018-04-26T23:53:11.478Z,2.53
2018-04-26T23:55:40.368Z,2.23
2018-04-26T23:58:09.158Z,2.80
